Time;durP1;ratioP1;P1;durP2;ratioP2;P2;SDS_P1;SDS_P2;PMS_P1;PMS_P2;Temp;Humidity;BMP_temperature;BMP_pressure;BME280_temperature;BME280_humidity;BME280_pressure;Samples;Min_cycle;Max_cycle;Signal;HPM_P1;HPM_P2
2022/11/15 00:02:21;;;;;;;6.95;2.47;;;;;;;;;;5084623;28;20048;-66
2022/11/15 00:04:47;;;;;;;6.00;2.22;;;;;;;;;;5087067;27;20052;-66
2022/11/15 00:07:14;;;;;;;6.07;2.25;;;;;;;;;;5084381;28;20051;-65
2022/11/15 00:09:41;;;;;;;5.60;2.38;;;;;;;;;;5083863;27;20039;-66
2022/11/15 00:12:07;;;;;;;5.00;2.20;;;;;;;;;;5081972;28;20044;-66
2022/11/15 00:14:34;;;;;;;7.50;2.70;;;;;;;;;;5060275;28;20071;-66
2022/11/15 00:17:00;;;;;;;7.50;2.30;;;;;;;;;;5086596;27;20081;-67
2022/11/15 00:19:27;;;;;;;5.47;2.20;;;;;;;;;;5067929;28;20086;-66
2022/11/15 00:21:53;;;;;;;7.32;2.50;;;;;;;;;;5083727;28;20119;-66
2022/11/15 00:24:20;;;;;;;4.93;2.10;;;;;;;;;;5083747;27;20097;-67
2022/11/15 00:26:47;;;;;;;4.80;2.17;;;;;;;;;;5085278;28;20047;-67
2022/11/15 00:29:13;;;;;;;8.65;2.50;;;;;;;;;;5084736;27;20042;-68
2022/11/15 00:31:40;;;;;;;5.88;2.70;;;;;;;;;;5083446;28;20085;-66
2022/11/15 00:34:06;;;;;;;8.23;2.00;;;;;;;;;;5084895;28;20046;-65
2022/11/15 00:36:36;;;;;;;6.18;2.63;;;;;;;;;;5083623;28;20720;-67
2022/11/15 00:39:05;;;;;;;6.55;2.53;;;;;;;;;;5084523;28;20059;-65
2022/11/15 00:41:32;;;;;;;5.13;2.63;;;;;;;;;;5083414;28;20046;-65
2022/11/15 00:43:58;;;;;;;5.28;2.40;;;;;;;;;;5085725;28;20044;-64
2022/11/15 00:46:25;;;;;;;5.40;2.20;;;;;;;;;;5083458;28;20134;-64
2022/11/15 00:48:52;;;;;;;6.25;2.42;;;;;;;;;;5083859;28;20044;-65
2022/11/15 00:51:18;;;;;;;4.47;2.20;;;;;;;;;;5081742;28;20094;-66
2022/11/15 00:53:45;;;;;;;6.53;2.50;;;;;;;;;;5083435;28;20066;-64
2022/11/15 00:56:11;;;;;;;5.65;2.30;;;;;;;;;;5081374;27;20067;-66
2022/11/15 00:58:38;;;;;;;7.10;2.60;;;;;;;;;;5082346;28;20040;-64
2022/11/15 01:01:08;;;;;;;8.20;2.95;;;;;;;;;;5083712;28;20047;-64
2022/11/15 01:03:35;;;;;;;7.00;2.95;;;;;;;;;;5085193;28;20043;-65
2022/11/15 01:06:02;;;;;;;7.07;2.65;;;;;;;;;;5082059;28;20028;-65
2022/11/15 01:08:29;;;;;;;5.10;2.65;;;;;;;;;;5085545;28;20815;-65
2022/11/15 01:10:55;;;;;;;4.90;2.20;;;;;;;;;;5082627;27;20036;-65
2022/11/15 01:13:22;;;;;;;7.80;2.70;;;;;;;;;;5083911;28;20426;-67
2022/11/15 01:15:48;;;;;;;10.52;2.70;;;;;;;;;;5084173;28;20064;-67
2022/11/15 01:18:15;;;;;;;8.15;2.58;;;;;;;;;;5084146;28;20044;-65
2022/11/15 01:20:42;;;;;;;6.63;2.58;;;;;;;;;;5082379;27;20046;-66
2022/11/15 01:23:09;;;;;;;11.20;3.05;;;;;;;;;;5084202;28;20496;-64
2022/11/15 01:25:35;;;;;;;6.55;2.75;;;;;;;;;;5084159;28;20150;-66
2022/11/15 01:28:02;;;;;;;6.88;3.20;;;;;;;;;;5080020;28;20090;-65
2022/11/15 01:30:29;;;;;;;8.48;3.25;;;;;;;;;;5086696;27;20047;-65
2022/11/15 01:32:55;;;;;;;10.25;4.18;;;;;;;;;;5087389;28;20040;-64
2022/11/15 01:35:22;;;;;;;8.40;3.50;;;;;;;;;;5085119;27;20399;-66
2022/11/15 01:37:48;;;;;;;7.88;3.08;;;;;;;;;;5087506;28;20034;-66
2022/11/15 01:40:15;;;;;;;7.28;3.45;;;;;;;;;;5087647;27;20083;-66
2022/11/15 01:42:41;;;;;;;7.63;3.47;;;;;;;;;;5087838;28;20044;-66
2022/11/15 01:45:14;;;;;;;9.15;3.97;;;;;;;;;;5086092;28;20084;-66
2022/11/15 01:47:45;;;;;;;12.15;4.43;;;;;;;;;;5085937;28;21143;-67
2022/11/15 01:50:14;;;;;;;7.07;3.40;;;;;;;;;;5087008;28;20032;-65
2022/11/15 01:52:41;;;;;;;11.73;3.38;;;;;;;;;;5086694;28;20039;-66
2022/11/15 01:55:34;;;;;;;7.47;3.63;;;;;;;;;;5088323;28;20680;-66
2022/11/15 01:58:02;;;;;;;7.50;3.42;;;;;;;;;;5080663;28;20060;-65
2022/11/15 02:00:30;;;;;;;9.35;3.92;;;;;;;;;;5085360;27;21704;-66
2022/11/15 02:02:57;;;;;;;14.35;3.60;;;;;;;;;;5084854;28;20175;-66
2022/11/15 02:05:24;;;;;;;10.68;3.95;;;;;;;;;;5083307;28;20085;-65
2022/11/15 02:07:50;;;;;;;8.05;3.70;;;;;;;;;;5086686;28;20515;-66
2022/11/15 02:10:21;;;;;;;8.57;3.53;;;;;;;;;;5085367;28;20036;-65
2022/11/15 02:12:48;;;;;;;9.27;3.05;;;;;;;;;;5086012;28;20096;-67
2022/11/15 02:15:15;;;;;;;9.15;3.83;;;;;;;;;;5087138;28;22278;-66
2022/11/15 02:17:53;;;;;;;11.23;3.53;;;;;;;;;;5085955;28;20036;-66
2022/11/15 02:20:26;;;;;;;8.65;3.70;;;;;;;;;;5086652;27;20031;-66
2022/11/15 02:23:02;;;;;;;8.43;4.03;;;;;;;;;;5083929;28;20420;-67
2022/11/15 02:25:41;;;;;;;8.07;3.65;;;;;;;;;;5084345;28;20151;-66
2022/11/15 02:28:11;;;;;;;9.07;4.38;;;;;;;;;;5087826;28;20067;-66
2022/11/15 02:30:42;;;;;;;12.10;5.15;;;;;;;;;;5077861;28;20047;-65
2022/11/15 02:33:08;;;;;;;11.38;5.10;;;;;;;;;;5063824;28;20058;-66
2022/11/15 02:35:42;;;;;;;11.40;5.03;;;;;;;;;;5085774;27;20036;-65
2022/11/15 02:38:23;;;;;;;9.70;5.13;;;;;;;;;;5085845;28;20414;-65
2022/11/15 02:40:59;;;;;;;11.68;5.47;;;;;;;;;;5082847;27;20048;-67
2022/11/15 02:43:57;;;;;;;11.40;5.80;;;;;;;;;;5063931;28;20058;-66
2022/11/15 02:49:29;;;;;;;8.93;5.47;;;;;;;;;;5075411;27;20107;-67
2022/11/15 02:51:56;;;;;;;10.18;5.18;;;;;;;;;;5099935;27;20066;-65
2022/11/15 02:54:24;;;;;;;12.85;5.57;;;;;;;;;;5084181;28;20053;-65
2022/11/15 02:56:54;;;;;;;12.13;5.60;;;;;;;;;;5087897;28;20541;-65
2022/11/15 02:59:23;;;;;;;11.52;5.00;;;;;;;;;;5087750;27;20036;-65
2022/11/15 03:01:49;;;;;;;10.68;4.90;;;;;;;;;;5085247;28;20044;-65
2022/11/15 03:04:25;;;;;;;13.35;5.47;;;;;;;;;;5087381;28;20048;-65
2022/11/15 03:07:15;;;;;;;15.90;5.90;;;;;;;;;;5063338;28;20038;-65
2022/11/15 03:09:47;;;;;;;9.65;4.68;;;;;;;;;;5074190;28;20051;-65
2022/11/15 03:12:21;;;;;;;8.27;4.82;;;;;;;;;;5085307;28;20040;-66
2022/11/15 03:14:47;;;;;;;;;;;;;;;;;;5081917;28;20032;-67
2022/11/15 03:17:32;;;;;;;8.25;4.25;;;;;;;;;;5084952;28;20341;-65
2022/11/15 03:20:00;;;;;;;10.02;5.03;;;;;;;;;;5085604;28;20047;-66
2022/11/15 03:22:28;;;;;;;16.52;4.72;;;;;;;;;;5084361;28;20032;-65
2022/11/15 03:24:58;;;;;;;15.75;5.28;;;;;;;;;;5086210;28;20048;-65
2022/11/15 03:27:26;;;;;;;14.95;5.13;;;;;;;;;;5085134;28;20044;-67
2022/11/15 03:29:56;;;;;;;11.70;5.90;;;;;;;;;;5085897;28;20039;-65
2022/11/15 03:32:31;;;;;;;11.13;6.07;;;;;;;;;;5072103;27;20062;-65
2022/11/15 03:35:18;;;;;;;15.95;5.60;;;;;;;;;;5072535;28;20059;-64
2022/11/15 03:37:47;;;;;;;12.90;6.32;;;;;;;;;;5085248;28;20043;-67
2022/11/15 03:40:14;;;;;;;20.23;10.32;;;;;;;;;;5083519;28;20519;-65
2022/11/15 03:42:56;;;;;;;19.10;8.73;;;;;;;;;;5082922;28;20050;-65
2022/11/15 03:45:27;;;;;;;17.70;8.07;;;;;;;;;;5077387;28;20385;-66
2022/11/15 03:48:14;;;;;;;19.02;7.60;;;;;;;;;;5084191;28;20135;-65
2022/11/15 03:50:42;;;;;;;11.38;5.85;;;;;;;;;;5070439;28;20272;-66
2022/11/15 03:53:09;;;;;;;14.30;6.78;;;;;;;;;;5059166;28;20051;-65
2022/11/15 03:55:35;;;;;;;15.23;5.85;;;;;;;;;;5073467;27;20131;-67
2022/11/15 03:58:02;;;;;;;13.73;6.20;;;;;;;;;;5097807;27;20032;-66
2022/11/15 04:00:29;;;;;;;12.95;6.38;;;;;;;;;;5083661;27;20048;-65
2022/11/15 04:02:56;;;;;;;11.13;5.60;;;;;;;;;;5084317;28;20399;-66
2022/11/15 04:05:22;;;;;;;8.57;5.38;;;;;;;;;;5083121;27;20078;-67
2022/11/15 04:07:49;;;;;;;13.35;5.68;;;;;;;;;;5084407;28;20051;-66
2022/11/15 04:10:16;;;;;;;14.82;5.75;;;;;;;;;;5083757;28;20438;-66
2022/11/15 04:12:46;;;;;;;9.57;5.32;;;;;;;;;;5082663;28;20067;-65
2022/11/15 04:15:13;;;;;;;11.88;5.13;;;;;;;;;;5084931;28;20449;-67
2022/11/15 04:17:44;;;;;;;13.95;5.53;;;;;;;;;;5075318;28;20040;-66
2022/11/15 04:25:44;;;;;;;14.95;5.50;;;;;;;;;;5083484;28;20039;-65
2022/11/15 04:28:11;;;;;;;13.60;5.90;;;;;;;;;;5084301;28;20043;-66
2022/11/15 04:30:37;;;;;;;13.07;5.70;;;;;;;;;;5082380;27;20487;-66
2022/11/15 04:33:04;;;;;;;9.55;5.10;;;;;;;;;;5083702;28;20586;-66
2022/11/15 04:35:31;;;;;;;14.02;6.10;;;;;;;;;;5064301;28;20055;-67
2022/11/15 04:37:58;;;;;;;11.63;5.53;;;;;;;;;;5086423;28;20048;-66
2022/11/15 04:40:25;;;;;;;11.85;5.28;;;;;;;;;;5059888;28;20119;-66
2022/11/15 04:42:51;;;;;;;9.65;4.78;;;;;;;;;;5080722;27;20104;-65
2022/11/15 04:45:18;;;;;;;13.93;5.32;;;;;;;;;;5065943;28;20066;-67
2022/11/15 04:47:45;;;;;;;11.25;5.68;;;;;;;;;;5079491;28;20059;-67
2022/11/15 04:50:13;;;;;;;9.95;4.95;;;;;;;;;;5079675;27;20078;-66
2022/11/15 04:52:41;;;;;;;13.50;5.40;;;;;;;;;;5080548;28;20557;-66
2022/11/15 04:55:08;;;;;;;10.32;5.15;;;;;;;;;;5061765;28;20047;-66
2022/11/15 04:57:59;;;;;;;10.70;5.22;;;;;;;;;;5040431;28;20068;-66
2022/11/15 05:00:26;;;;;;;12.00;5.35;;;;;;;;;;5040216;28;20163;-72
2022/11/15 05:05:38;;;;;;;14.52;4.68;;;;;;;;;;5045672;28;20140;-67
2022/11/15 05:08:05;;;;;;;9.45;5.07;;;;;;;;;;5046989;28;20758;-68
2022/11/15 05:10:32;;;;;;;13.05;5.85;;;;;;;;;;5060817;28;20033;-65
2022/11/15 05:12:58;;;;;;;11.43;5.63;;;;;;;;;;5045079;28;20124;-66
2022/11/15 05:15:25;;;;;;;13.90;6.93;;;;;;;;;;5045473;28;20079;-64
2022/11/15 05:17:51;;;;;;;13.82;6.80;;;;;;;;;;5044837;28;20123;-65
2022/11/15 05:20:18;;;;;;;14.05;6.70;;;;;;;;;;5044533;28;20036;-65
2022/11/15 05:22:44;;;;;;;11.38;5.35;;;;;;;;;;5043589;28;20037;-65
2022/11/15 05:25:11;;;;;;;13.48;5.88;;;;;;;;;;5044864;28;20058;-65
2022/11/15 05:27:38;;;;;;;19.38;5.82;;;;;;;;;;5044782;28;20079;-66
2022/11/15 05:30:04;;;;;;;12.43;6.40;;;;;;;;;;5081189;28;20043;-66
2022/11/15 05:32:31;;;;;;;14.10;7.07;;;;;;;;;;5083612;28;20048;-66
2022/11/15 05:34:58;;;;;;;13.57;6.15;;;;;;;;;;5084955;28;20036;-65
2022/11/15 05:37:24;;;;;;;14.52;6.50;;;;;;;;;;5082266;27;20567;-65
2022/11/15 05:39:51;;;;;;;12.15;6.07;;;;;;;;;;5093728;27;20051;-66
2022/11/15 05:42:18;;;;;;;14.25;6.45;;;;;;;;;;5088240;28;20043;-66
2022/11/15 05:44:49;;;;;;;18.63;6.35;;;;;;;;;;5087048;28;20126;-66
2022/11/15 05:47:22;;;;;;;13.02;6.35;;;;;;;;;;5087932;28;20044;-65
2022/11/15 05:49:50;;;;;;;16.45;6.55;;;;;;;;;;5085764;28;20027;-65
2022/11/15 05:52:18;;;;;;;13.23;6.25;;;;;;;;;;5071231;28;20040;-65
2022/11/15 05:54:45;;;;;;;13.52;5.82;;;;;;;;;;5086853;27;20040;-65
2022/11/15 05:57:11;;;;;;;15.20;5.72;;;;;;;;;;5087898;28;20039;-65
2022/11/15 05:59:40;;;;;;;16.05;6.68;;;;;;;;;;5085922;28;20036;-65
2022/11/15 06:02:06;;;;;;;10.73;5.55;;;;;;;;;;5087457;28;20085;-65
2022/11/15 06:04:33;;;;;;;17.08;6.35;;;;;;;;;;5086371;28;20054;-65
2022/11/15 06:07:00;;;;;;;11.35;5.82;;;;;;;;;;5087110;28;20040;-65
2022/11/15 06:09:26;;;;;;;10.45;5.45;;;;;;;;;;5085109;27;20068;-66
2022/11/15 06:11:53;;;;;;;10.90;5.55;;;;;;;;;;5085224;28;20054;-66
2022/11/15 06:14:19;;;;;;;13.48;6.35;;;;;;;;;;5085799;28;20059;-65
2022/11/15 06:16:46;;;;;;;14.48;5.28;;;;;;;;;;5087874;28;20040;-65
2022/11/15 06:19:13;;;;;;;16.27;6.45;;;;;;;;;;5086674;27;20623;-64
2022/11/15 06:21:39;;;;;;;12.93;6.10;;;;;;;;;;5085030;28;20046;-65
2022/11/15 06:24:06;;;;;;;13.40;5.82;;;;;;;;;;5067607;28;20056;-64
2022/11/15 06:26:33;;;;;;;11.95;5.15;;;;;;;;;;5085808;28;20070;-68
2022/11/15 06:28:59;;;;;;;11.50;6.03;;;;;;;;;;5065832;28;20044;-64
2022/11/15 06:31:26;;;;;;;12.07;5.43;;;;;;;;;;5085896;28;20433;-65
2022/11/15 06:33:53;;;;;;;10.02;5.55;;;;;;;;;;5085577;28;20044;-66
2022/11/15 06:36:20;;;;;;;15.23;6.93;;;;;;;;;;5085444;28;20592;-65
2022/11/15 06:38:47;;;;;;;12.30;5.78;;;;;;;;;;5066802;28;20047;-65
2022/11/15 06:41:14;;;;;;;10.70;5.63;;;;;;;;;;5070061;28;20130;-67
2022/11/15 06:43:41;;;;;;;16.25;5.93;;;;;;;;;;5065294;27;20138;-65
2022/11/15 06:46:08;;;;;;;13.48;6.07;;;;;;;;;;5087282;28;20067;-66
2022/11/15 06:48:36;;;;;;;11.13;5.60;;;;;;;;;;5084563;28;20051;-66
2022/11/15 06:51:03;;;;;;;18.15;6.28;;;;;;;;;;5085993;28;20503;-65
2022/11/15 06:53:30;;;;;;;14.05;6.35;;;;;;;;;;5084720;28;20044;-66
2022/11/15 06:56:01;;;;;;;14.18;6.05;;;;;;;;;;5085642;27;20057;-67
2022/11/15 06:58:27;;;;;;;11.90;5.78;;;;;;;;;;5081374;28;20514;-68
2022/11/15 07:00:55;;;;;;;13.25;6.07;;;;;;;;;;5086325;28;20417;-67
2022/11/15 07:03:21;;;;;;;14.95;6.47;;;;;;;;;;5084096;28;20048;-66
2022/11/15 07:05:55;;;;;;;19.77;6.53;;;;;;;;;;5074463;28;20403;-66
2022/11/15 07:08:22;;;;;;;15.35;6.25;;;;;;;;;;5085715;28;20078;-67
2022/11/15 07:10:49;;;;;;;10.65;5.68;;;;;;;;;;5086504;28;20055;-65
2022/11/15 07:13:15;;;;;;;9.10;5.30;;;;;;;;;;5085883;28;20704;-64
2022/11/15 07:15:42;;;;;;;9.82;4.78;;;;;;;;;;5084437;27;20118;-65
2022/11/15 07:18:08;;;;;;;9.18;5.35;;;;;;;;;;5086503;28;20048;-65
2022/11/15 07:20:35;;;;;;;11.18;4.95;;;;;;;;;;5063090;28;20039;-65
2022/11/15 07:23:02;;;;;;;11.20;5.25;;;;;;;;;;5082860;28;20503;-66
2022/11/15 07:25:29;;;;;;;10.02;5.10;;;;;;;;;;5085925;27;20047;-65
2022/11/15 07:27:59;;;;;;;11.98;5.35;;;;;;;;;;5084713;28;20028;-64
2022/11/15 07:30:26;;;;;;;9.23;4.50;;;;;;;;;;5085483;27;20137;-65
2022/11/15 07:32:55;;;;;;;10.95;4.82;;;;;;;;;;5085861;28;20039;-65
2022/11/15 07:35:22;;;;;;;11.68;4.80;;;;;;;;;;5085767;28;20043;-64
2022/11/15 07:37:56;;;;;;;10.82;5.30;;;;;;;;;;5084287;28;20051;-65
2022/11/15 07:40:23;;;;;;;12.45;4.97;;;;;;;;;;5083705;27;20055;-64
2022/11/15 07:42:52;;;;;;;9.32;4.28;;;;;;;;;;5084595;28;20040;-67
2022/11/15 07:45:19;;;;;;;11.35;4.45;;;;;;;;;;5063761;28;20040;-65
2022/11/15 07:47:46;;;;;;;10.43;4.88;;;;;;;;;;5085758;28;20058;-66
2022/11/15 07:50:13;;;;;;;12.50;5.53;;;;;;;;;;5058559;28;20063;-65
2022/11/15 07:52:40;;;;;;;10.40;5.00;;;;;;;;;;5084265;28;20050;-64
2022/11/15 07:55:07;;;;;;;8.43;4.45;;;;;;;;;;5084943;28;20040;-65
2022/11/15 07:57:33;;;;;;;9.30;4.53;;;;;;;;;;5063966;28;20111;-67
2022/11/15 08:00:00;;;;;;;10.05;4.85;;;;;;;;;;5067809;28;20147;-65
2022/11/15 08:02:28;;;;;;;11.80;4.53;;;;;;;;;;5058279;28;20040;-64
2022/11/15 08:04:55;;;;;;;9.90;4.57;;;;;;;;;;5100178;27;20065;-65
2022/11/15 08:07:21;;;;;;;8.43;4.32;;;;;;;;;;5084276;28;20109;-65
2022/11/15 08:09:48;;;;;;;10.55;4.68;;;;;;;;;;5085983;28;20553;-66
2022/11/15 08:12:15;;;;;;;11.57;4.43;;;;;;;;;;5084916;28;20044;-66
2022/11/15 08:14:42;;;;;;;10.63;4.45;;;;;;;;;;5083733;28;20031;-64
2022/11/15 08:17:09;;;;;;;11.90;4.30;;;;;;;;;;5079908;28;20051;-66
2022/11/15 08:19:35;;;;;;;9.48;4.13;;;;;;;;;;5082226;28;20036;-65
2022/11/15 08:22:02;;;;;;;7.65;3.97;;;;;;;;;;5068428;28;20063;-66
2022/11/15 08:24:29;;;;;;;16.08;4.22;;;;;;;;;;5083714;28;20504;-64
2022/11/15 08:26:55;;;;;;;11.18;4.63;;;;;;;;;;5083118;27;20107;-66
2022/11/15 08:29:22;;;;;;;11.07;4.43;;;;;;;;;;5063442;28;20096;-65
2022/11/15 08:31:48;;;;;;;11.02;4.13;;;;;;;;;;5084309;28;20043;-65
2022/11/15 08:34:15;;;;;;;9.60;3.90;;;;;;;;;;5084904;28;20863;-66
2022/11/15 08:36:41;;;;;;;8.80;4.20;;;;;;;;;;5083890;28;20613;-65
2022/11/15 08:39:11;;;;;;;7.40;4.00;;;;;;;;;;5079731;28;20139;-67
2022/11/15 08:41:38;;;;;;;9.20;3.83;;;;;;;;;;5069789;28;20071;-66
2022/11/15 08:44:04;;;;;;;12.32;3.85;;;;;;;;;;5084985;28;20529;-66
2022/11/15 08:46:31;;;;;;;9.18;4.22;;;;;;;;;;5078071;28;20052;-66
2022/11/15 08:48:58;;;;;;;9.45;3.78;;;;;;;;;;5085010;28;20577;-65
2022/11/15 08:51:25;;;;;;;9.13;4.05;;;;;;;;;;5083377;28;20043;-65
2022/11/15 08:53:52;;;;;;;8.93;3.20;;;;;;;;;;5086805;28;20068;-65
2022/11/15 08:56:18;;;;;;;9.70;3.45;;;;;;;;;;5085293;27;20550;-65
2022/11/15 08:58:46;;;;;;;11.02;3.65;;;;;;;;;;5084048;28;20043;-65
2022/11/15 09:01:20;;;;;;;8.30;3.53;;;;;;;;;;5082855;28;20087;-65
2022/11/15 09:03:46;;;;;;;9.20;3.05;;;;;;;;;;5084897;28;20111;-65
2022/11/15 09:06:13;;;;;;;7.68;3.03;;;;;;;;;;5084073;28;20028;-65
2022/11/15 09:08:40;;;;;;;8.88;3.55;;;;;;;;;;5086356;28;20127;-66
2022/11/15 09:11:07;;;;;;;8.57;3.38;;;;;;;;;;5084486;28;20031;-67
2022/11/15 09:13:34;;;;;;;7.53;3.42;;;;;;;;;;5083137;28;20396;-66
2022/11/15 09:16:02;;;;;;;8.38;3.67;;;;;;;;;;5084567;27;20055;-66
2022/11/15 09:18:29;;;;;;;10.00;3.22;;;;;;;;;;5084807;28;20068;-65
2022/11/15 09:20:58;;;;;;;8.38;3.72;;;;;;;;;;5082891;28;20117;-66
2022/11/15 09:23:25;;;;;;;9.02;3.90;;;;;;;;;;5082055;28;20051;-65
2022/11/15 09:25:53;;;;;;;6.45;2.90;;;;;;;;;;5084537;28;20090;-66
2022/11/15 09:28:19;;;;;;;11.65;3.38;;;;;;;;;;5078674;28;20027;-66
2022/11/15 09:30:46;;;;;;;9.35;3.83;;;;;;;;;;5083231;27;20547;-67
2022/11/15 09:33:13;;;;;;;9.07;3.45;;;;;;;;;;5082295;28;20037;-67
2022/11/15 09:35:40;;;;;;;9.80;3.60;;;;;;;;;;5069983;28;20048;-66
2022/11/15 09:38:07;;;;;;;8.73;3.20;;;;;;;;;;5083548;28;20492;-66
2022/11/15 09:40:36;;;;;;;7.18;3.30;;;;;;;;;;5082117;28;20054;-65
2022/11/15 09:43:12;;;;;;;12.45;3.75;;;;;;;;;;5084354;28;20043;-66
2022/11/15 09:45:44;;;;;;;9.48;3.40;;;;;;;;;;5062139;28;20365;-65
2022/11/15 09:48:29;;;;;;;6.95;3.55;;;;;;;;;;5082708;28;20346;-65
2022/11/15 09:50:59;;;;;;;8.60;3.33;;;;;;;;;;5085991;28;20116;-66
2022/11/15 09:53:28;;;;;;;11.07;3.35;;;;;;;;;;5084709;28;20089;-66
2022/11/15 09:56:06;;;;;;;6.28;3.10;;;;;;;;;;5088423;28;20040;-67
2022/11/15 09:58:51;;;;;;;9.55;3.58;;;;;;;;;;5087932;28;20525;-65
2022/11/15 10:01:20;;;;;;;5.70;3.03;;;;;;;;;;5087265;28;20488;-66
2022/11/15 10:03:46;;;;;;;7.63;3.15;;;;;;;;;;5084769;28;20056;-66
2022/11/15 10:06:22;;;;;;;7.60;2.97;;;;;;;;;;5087710;28;20043;-65
2022/11/15 10:09:21;;;;;;;8.90;3.35;;;;;;;;;;5066284;28;21311;-66
2022/11/15 10:11:48;;;;;;;8.93;3.28;;;;;;;;;;5059176;28;20461;-66
2022/11/15 10:14:17;;;;;;;5.47;2.67;;;;;;;;;;5088147;28;20048;-66
2022/11/15 10:16:58;;;;;;;5.60;2.80;;;;;;;;;;5066381;28;20048;-65
2022/11/15 10:19:31;;;;;;;6.90;3.30;;;;;;;;;;5085647;28;20535;-65
2022/11/15 10:22:12;;;;;;;7.18;2.70;;;;;;;;;;5087351;28;20031;-66
2022/11/15 10:27:19;;;;;;;7.32;2.70;;;;;;;;;;4848037;22;20134;31
2022/11/15 10:29:47;;;;;;;6.55;2.60;;;;;;;;;;5000631;28;20053;-60
2022/11/15 10:32:15;;;;;;;7.63;3.08;;;;;;;;;;5011857;28;20037;-58
2022/11/15 10:34:41;;;;;;;8.27;2.70;;;;;;;;;;5010565;28;20470;-58
2022/11/15 10:37:08;;;;;;;8.27;2.63;;;;;;;;;;5012780;28;20038;-60
2022/11/15 10:39:35;;;;;;;5.93;2.45;;;;;;;;;;5012896;28;20030;-57
2022/11/15 10:42:31;;;;;;;7.65;3.10;;;;;;;;;;5012099;28;20053;-57
2022/11/15 10:44:58;;;;;;;8.30;3.22;;;;;;;;;;4996759;28;20055;-56
2022/11/15 10:47:27;;;;;;;6.68;2.53;;;;;;;;;;5010915;28;20034;-60
2022/11/15 10:49:57;;;;;;;14.75;2.63;;;;;;;;;;5010816;28;20937;-58
2022/11/15 10:52:25;;;;;;;8.65;3.10;;;;;;;;;;5008928;28;20682;-55
2022/11/15 10:55:17;;;;;;;7.35;2.70;;;;;;;;;;5010169;28;20035;-58
2022/11/15 10:57:50;;;;;;;5.60;2.47;;;;;;;;;;5006161;28;20061;-57
2022/11/15 11:00:20;;;;;;;8.13;2.42;;;;;;;;;;5008776;28;20133;-60
2022/11/15 11:02:47;;;;;;;5.07;2.35;;;;;;;;;;5009398;28;20041;-57
2022/11/15 11:05:28;;;;;;;8.85;2.72;;;;;;;;;;5009529;28;20045;-60
2022/11/15 11:07:58;;;;;;;6.40;2.58;;;;;;;;;;5009686;28;21324;-61
2022/11/15 11:10:25;;;;;;;4.88;2.35;;;;;;;;;;5010681;28;20060;-57
2022/11/15 11:12:52;;;;;;;7.50;2.65;;;;;;;;;;5010688;28;20037;-54
2022/11/15 11:15:19;;;;;;;6.82;2.78;;;;;;;;;;5009432;28;20484;-60
2022/11/15 11:17:52;;;;;;;9.90;2.83;;;;;;;;;;5008621;28;20062;-57
2022/11/15 11:20:37;;;;;;;10.43;2.67;;;;;;;;;;5007981;28;20064;-63
2022/11/15 11:23:10;;;;;;;8.15;2.75;;;;;;;;;;5007495;28;20053;-58
2022/11/15 11:25:46;;;;;;;6.72;2.47;;;;;;;;;;5009541;28;20037;-58
2022/11/15 11:28:13;;;;;;;9.13;2.70;;;;;;;;;;5008805;28;20049;-58
2022/11/15 11:30:58;;;;;;;5.43;2.30;;;;;;;;;;5008375;28;20040;-58
2022/11/15 11:33:24;;;;;;;6.82;2.33;;;;;;;;;;5008794;28;20064;-58
2022/11/15 11:36:02;;;;;;;5.65;2.25;;;;;;;;;;5009061;28;20042;-58
2022/11/15 11:38:31;;;;;;;7.60;2.35;;;;;;;;;;5008983;28;20055;-56
2022/11/15 11:41:01;;;;;;;8.40;3.10;;;;;;;;;;5006797;28;20049;-58
2022/11/15 11:43:35;;;;;;;5.38;2.42;;;;;;;;;;5007646;28;20054;-58
2022/11/15 11:46:14;;;;;;;5.28;2.28;;;;;;;;;;5009215;28;20050;-57
2022/11/15 11:48:45;;;;;;;9.40;3.10;;;;;;;;;;5007868;28;20095;-58
2022/11/15 11:51:17;;;;;;;13.90;3.55;;;;;;;;;;5009515;28;20717;-58
2022/11/15 11:53:48;;;;;;;7.97;3.17;;;;;;;;;;5007510;28;20172;-59
2022/11/15 11:56:27;;;;;;;6.15;2.88;;;;;;;;;;5007232;28;20056;-57
2022/11/15 11:58:55;;;;;;;9.05;3.20;;;;;;;;;;5005942;28;20045;-56
2022/11/15 12:01:21;;;;;;;7.50;3.30;;;;;;;;;;5006332;28;20607;-58
2022/11/15 12:03:59;;;;;;;8.63;3.40;;;;;;;;;;5007959;28;20418;-57
2022/11/15 12:06:40;;;;;;;6.65;3.17;;;;;;;;;;5007784;28;20103;-57
2022/11/15 12:09:25;;;;;;;7.18;3.35;;;;;;;;;;5008042;28;20597;-57
2022/11/15 12:12:04;;;;;;;7.85;3.20;;;;;;;;;;5007899;28;20099;-58
2022/11/15 12:14:39;;;;;;;9.23;3.03;;;;;;;;;;5009160;28;21229;-58
2022/11/15 12:17:06;;;;;;;7.05;2.95;;;;;;;;;;5011135;28;20106;-60
2022/11/15 12:19:33;;;;;;;8.43;3.40;;;;;;;;;;5010953;28;20083;-57
2022/11/15 12:22:11;;;;;;;6.05;3.33;;;;;;;;;;5010232;28;20565;-58
2022/11/15 12:24:38;;;;;;;9.63;3.65;;;;;;;;;;5009697;28;20054;-60
2022/11/15 12:27:19;;;;;;;6.90;3.03;;;;;;;;;;5013824;28;20049;-58
2022/11/15 12:29:52;;;;;;;6.90;3.17;;;;;;;;;;5009736;28;20623;-58
2022/11/15 12:32:18;;;;;;;11.05;3.85;;;;;;;;;;5008968;28;20136;-58
2022/11/15 12:34:46;;;;;;;8.75;3.40;;;;;;;;;;5009419;28;20392;-58
2022/11/15 12:37:31;;;;;;;8.30;3.50;;;;;;;;;;5009380;28;20045;-57
2022/11/15 12:40:10;;;;;;;8.73;3.63;;;;;;;;;;5009866;28;20064;-58
2022/11/15 12:42:41;;;;;;;8.25;3.50;;;;;;;;;;5009594;28;20084;-58
2022/11/15 12:45:25;;;;;;;10.02;3.85;;;;;;;;;;5004594;28;20536;-58
2022/11/15 12:47:51;;;;;;;;;;;;;;;;;;5004020;28;20751;-59
2022/11/15 12:50:37;;;;;;;9.07;3.22;;;;;;;;;;5009224;28;20381;-58
2022/11/15 12:53:23;;;;;;;7.15;2.80;;;;;;;;;;5007010;28;20041;-58
2022/11/15 12:56:08;;;;;;;6.03;3.00;;;;;;;;;;5002726;28;20525;-57
2022/11/15 12:58:53;;;;;;;7.57;3.15;;;;;;;;;;5002042;28;21240;-58
2022/11/15 13:01:35;;;;;;;7.70;3.53;;;;;;;;;;4998866;28;20039;-55
2022/11/15 13:04:19;;;;;;;12.50;3.28;;;;;;;;;;5005358;28;20108;-57
2022/11/15 13:06:54;;;;;;;7.97;3.15;;;;;;;;;;4999888;28;20149;-57
2022/11/15 13:09:32;;;;;;;8.98;2.80;;;;;;;;;;4998336;28;20172;-57
2022/11/15 13:12:01;;;;;;;6.60;2.75;;;;;;;;;;5007070;28;20135;-59
2022/11/15 13:14:45;;;;;;;7.85;3.58;;;;;;;;;;5008010;28;20579;-58
2022/11/15 13:17:11;;;;;;;;;;;;;;;;;;5006843;28;20131;-59
2022/11/15 13:19:38;;;;;;;6.57;2.60;;;;;;;;;;5008649;28;19917;-58
2022/11/15 13:24:55;;;;;;;10.15;3.67;;;;;;;;;;5012230;28;20147;-59
2022/11/15 13:27:22;;;;;;;7.57;3.00;;;;;;;;;;5012740;28;20053;-57
2022/11/15 13:29:49;;;;;;;12.57;3.28;;;;;;;;;;5013155;28;20623;-58
2022/11/15 13:32:16;;;;;;;6.35;2.60;;;;;;;;;;5013395;28;20034;-59
2022/11/15 13:34:47;;;;;;;6.80;3.33;;;;;;;;;;5011502;28;21809;-58
2022/11/15 13:37:23;;;;;;;9.38;3.22;;;;;;;;;;5014815;28;20042;-58
2022/11/15 13:39:50;;;;;;;9.98;3.78;;;;;;;;;;5012356;28;20082;-57
2022/11/15 13:42:18;;;;;;;8.70;3.33;;;;;;;;;;5013881;28;20189;-59
2022/11/15 13:44:58;;;;;;;9.50;3.47;;;;;;;;;;5005911;28;20053;-58
2022/11/15 13:47:27;;;;;;;7.57;2.55;;;;;;;;;;5011955;28;20164;-59
2022/11/15 13:49:54;;;;;;;12.23;3.60;;;;;;;;;;5013738;28;20043;-59
2022/11/15 13:52:21;;;;;;;8.32;3.47;;;;;;;;;;5012356;28;20068;-58
2022/11/15 13:54:48;;;;;;;6.43;2.95;;;;;;;;;;5011695;28;20121;-60
2022/11/15 13:57:14;;;;;;;7.85;3.10;;;;;;;;;;5014118;28;20057;-56
2022/11/15 13:59:55;;;;;;;6.88;2.58;;;;;;;;;;5003102;28;20200;-57
2022/11/15 14:02:25;;;;;;;8.45;2.83;;;;;;;;;;4991898;28;20068;-59
2022/11/15 14:04:54;;;;;;;6.57;2.78;;;;;;;;;;5000035;28;20064;-60
2022/11/15 14:07:22;;;;;;;8.10;3.10;;;;;;;;;;5010243;28;20053;-60
2022/11/15 14:09:49;;;;;;;7.90;2.42;;;;;;;;;;5005002;28;20029;-58
2022/11/15 14:12:27;;;;;;;9.02;2.90;;;;;;;;;;5012880;28;20405;-56
2022/11/15 14:14:53;;;;;;;5.93;2.50;;;;;;;;;;5013798;28;20499;-57
2022/11/15 14:17:23;;;;;;;7.10;2.53;;;;;;;;;;5015539;28;20037;-59
2022/11/15 14:19:51;;;;;;;6.30;2.30;;;;;;;;;;5013912;28;20034;-57
2022/11/15 14:22:28;;;;;;;6.95;2.38;;;;;;;;;;5015055;28;20042;-57
2022/11/15 14:25:12;;;;;;;7.22;2.33;;;;;;;;;;5013147;28;20065;-58
2022/11/15 14:27:39;;;;;;;5.10;2.40;;;;;;;;;;5013769;28;20107;-57
2022/11/15 14:30:06;;;;;;;8.10;2.53;;;;;;;;;;5011958;28;20042;-59
2022/11/15 14:32:49;;;;;;;7.53;2.45;;;;;;;;;;5013579;28;20034;-58
2022/11/15 14:35:17;;;;;;;4.03;1.63;;;;;;;;;;5012637;28;20127;-58
2022/11/15 14:37:44;;;;;;;5.38;2.45;;;;;;;;;;5011187;28;20045;-57
2022/11/15 14:40:14;;;;;;;8.25;2.60;;;;;;;;;;5011695;28;20513;-59
2022/11/15 14:42:40;;;;;;;8.35;2.97;;;;;;;;;;5010516;28;20045;-59
2022/11/15 14:45:15;;;;;;;6.32;2.78;;;;;;;;;;5012915;28;21752;-58
2022/11/15 14:47:42;;;;;;;12.13;3.00;;;;;;;;;;5012219;28;20354;-58
2022/11/15 14:50:13;;;;;;;7.75;3.20;;;;;;;;;;5007211;28;20041;-62
2022/11/15 14:52:39;;;;;;;7.55;2.63;;;;;;;;;;5011515;28;20044;-59
2022/11/15 14:55:14;;;;;;;8.07;2.95;;;;;;;;;;5011367;28;20401;-58
2022/11/15 14:57:40;;;;;;;7.32;2.40;;;;;;;;;;4994862;28;20042;-59
2022/11/15 15:00:08;;;;;;;8.00;2.50;;;;;;;;;;5002672;28;20088;-59
2022/11/15 15:02:35;;;;;;;7.38;3.17;;;;;;;;;;4998417;28;20511;-59
2022/11/15 15:05:03;;;;;;;8.10;3.40;;;;;;;;;;5001760;28;21109;-59
2022/11/15 15:07:29;;;;;;;9.07;2.90;;;;;;;;;;4995623;28;20525;-58
2022/11/15 15:09:56;;;;;;;6.85;2.90;;;;;;;;;;5003078;28;20041;-60
2022/11/15 15:12:23;;;;;;;8.57;2.47;;;;;;;;;;5010533;28;20033;-59